sensor_id;sensor_type;location;lat;lon;timestamp;P1;durP1;ratioP1;P2;durP2;ratioP2
2119;SDS011;1066;52.540;13.420;2022-12-11T00:01:26;12.90;;;9.80;;
2119;SDS011;1066;52.540;13.420;2022-12-11T00:03:51;13.23;;;9.93;;
2119;SDS011;1066;52.540;13.420;2022-12-11T00:06:18;14.50;;;11.27;;
2119;SDS011;1066;52.540;13.420;2022-12-11T00:08:44;12.23;;;10.77;;
2119;SDS011;1066;52.540;13.420;2022-12-11T00:11:11;17.60;;;13.43;;
2119;SDS011;1066;52.540;13.420;2022-12-11T00:13:37;15.97;;;10.73;;
2119;SDS011;1066;52.540;13.420;2022-12-11T00:16:02;17.90;;;11.40;;
2119;SDS011;1066;52.540;13.420;2022-12-11T00:18:28;16.47;;;11.33;;
2119;SDS011;1066;52.540;13.420;2022-12-11T00:20:53;13.33;;;10.50;;
2119;SDS011;1066;52.540;13.420;2022-12-11T00:23:18;14.30;;;10.80;;
2119;SDS011;1066;52.540;13.420;2022-12-11T00:25:44;11.63;;;10.30;;
2119;SDS011;1066;52.540;13.420;2022-12-11T00:28:11;13.93;;;10.67;;
2119;SDS011;1066;52.540;13.420;2022-12-11T00:30:38;14.00;;;10.93;;
2119;SDS011;1066;52.540;13.420;2022-12-11T00:33:05;12.50;;;11.13;;
2119;SDS011;1066;52.540;13.420;2022-12-11T00:35:30;16.20;;;11.40;;
2119;SDS011;1066;52.540;13.420;2022-12-11T00:37:55;14.00;;;9.50;;
2119;SDS011;1066;52.540;13.420;2022-12-11T00:40:21;14.50;;;12.07;;
2119;SDS011;1066;52.540;13.420;2022-12-11T00:42:47;16.33;;;10.00;;
2119;SDS011;1066;52.540;13.420;2022-12-11T00:45:12;14.60;;;11.73;;
2119;SDS011;1066;52.540;13.420;2022-12-11T00:47:37;14.00;;;10.43;;
2119;SDS011;1066;52.540;13.420;2022-12-11T00:50:03;12.87;;;10.17;;
2119;SDS011;1066;52.540;13.420;2022-12-11T00:52:29;16.03;;;10.93;;
2119;SDS011;1066;52.540;13.420;2022-12-11T00:54:54;13.93;;;9.97;;
2119;SDS011;1066;52.540;13.420;2022-12-11T00:57:19;12.17;;;10.30;;
2119;SDS011;1066;52.540;13.420;2022-12-11T00:59:44;15.20;;;10.50;;
2119;SDS011;1066;52.540;13.420;2022-12-11T01:02:10;11.90;;;9.90;;
2119;SDS011;1066;52.540;13.420;2022-12-11T01:04:35;15.00;;;10.60;;
2119;SDS011;1066;52.540;13.420;2022-12-11T01:07:01;11.17;;;9.67;;
2119;SDS011;1066;52.540;13.420;2022-12-11T01:09:26;15.03;;;10.20;;
2119;SDS011;1066;52.540;13.420;2022-12-11T01:12:10;12.77;;;9.83;;
2119;SDS011;1066;52.540;13.420;2022-12-11T01:14:35;12.87;;;9.60;;
2119;SDS011;1066;52.540;13.420;2022-12-11T01:17:01;13.43;;;10.00;;
2119;SDS011;1066;52.540;13.420;2022-12-11T01:19:26;12.47;;;9.80;;
2119;SDS011;1066;52.540;13.420;2022-12-11T01:21:52;15.57;;;10.53;;
2119;SDS011;1066;52.540;13.420;2022-12-11T01:24:17;15.57;;;10.90;;
2119;SDS011;1066;52.540;13.420;2022-12-11T01:26:43;14.20;;;9.93;;
2119;SDS011;1066;52.540;13.420;2022-12-11T01:29:08;13.90;;;10.67;;
2119;SDS011;1066;52.540;13.420;2022-12-11T01:31:33;12.50;;;11.20;;
2119;SDS011;1066;52.540;13.420;2022-12-11T01:33:59;14.77;;;10.80;;
2119;SDS011;1066;52.540;13.420;2022-12-11T01:36:24;14.00;;;10.30;;
2119;SDS011;1066;52.540;13.420;2022-12-11T01:38:50;13.40;;;10.10;;
2119;SDS011;1066;52.540;13.420;2022-12-11T01:41:17;15.90;;;11.00;;
2119;SDS011;1066;52.540;13.420;2022-12-11T01:46:29;16.53;;;11.10;;
2119;SDS011;1066;52.540;13.420;2022-12-11T01:48:55;17.30;;;11.03;;
2119;SDS011;1066;52.540;13.420;2022-12-11T01:51:21;13.40;;;10.47;;
2119;SDS011;1066;52.540;13.420;2022-12-11T01:53:49;14.90;;;11.40;;
2119;SDS011;1066;52.540;13.420;2022-12-11T01:56:17;17.80;;;11.87;;
2119;SDS011;1066;52.540;13.420;2022-12-11T01:58:46;15.27;;;11.60;;
2119;SDS011;1066;52.540;13.420;2022-12-11T02:01:49;13.70;;;10.30;;
2119;SDS011;1066;52.540;13.420;2022-12-11T02:04:09;13.37;;;10.80;;
2119;SDS011;1066;52.540;13.420;2022-12-11T02:06:39;15.83;;;10.63;;
2119;SDS011;1066;52.540;13.420;2022-12-11T02:09:05;16.40;;;11.40;;
2119;SDS011;1066;52.540;13.420;2022-12-11T02:11:46;15.70;;;11.00;;
2119;SDS011;1066;52.540;13.420;2022-12-11T02:14:21;12.80;;;9.93;;
2119;SDS011;1066;52.540;13.420;2022-12-11T02:16:54;14.27;;;10.03;;
2119;SDS011;1066;52.540;13.420;2022-12-11T02:19:36;13.10;;;10.40;;
2119;SDS011;1066;52.540;13.420;2022-12-11T02:22:18;15.50;;;11.37;;
2119;SDS011;1066;52.540;13.420;2022-12-11T02:27:22;15.47;;;9.70;;
2119;SDS011;1066;52.540;13.420;2022-12-11T02:30:06;13.73;;;11.50;;
2119;SDS011;1066;52.540;13.420;2022-12-11T02:32:34;15.93;;;11.27;;
2119;SDS011;1066;52.540;13.420;2022-12-11T02:35:09;15.33;;;11.70;;
2119;SDS011;1066;52.540;13.420;2022-12-11T02:37:38;16.90;;;12.00;;
2119;SDS011;1066;52.540;13.420;2022-12-11T02:40:06;16.07;;;11.63;;
2119;SDS011;1066;52.540;13.420;2022-12-11T02:42:33;13.60;;;10.33;;
2119;SDS011;1066;52.540;13.420;2022-12-11T02:45:00;15.30;;;10.43;;
2119;SDS011;1066;52.540;13.420;2022-12-11T02:47:26;15.83;;;11.43;;
2119;SDS011;1066;52.540;13.420;2022-12-11T02:49:52;16.87;;;11.43;;
2119;SDS011;1066;52.540;13.420;2022-12-11T02:52:20;15.57;;;10.03;;
2119;SDS011;1066;52.540;13.420;2022-12-11T02:54:47;15.20;;;10.73;;
2119;SDS011;1066;52.540;13.420;2022-12-11T02:57:21;15.30;;;11.50;;
2119;SDS011;1066;52.540;13.420;2022-12-11T02:59:48;12.83;;;10.63;;
2119;SDS011;1066;52.540;13.420;2022-12-11T03:02:14;15.00;;;10.13;;
2119;SDS011;1066;52.540;13.420;2022-12-11T03:04:40;13.77;;;11.53;;
2119;SDS011;1066;52.540;13.420;2022-12-11T03:07:07;15.97;;;11.70;;
2119;SDS011;1066;52.540;13.420;2022-12-11T03:09:41;16.67;;;11.03;;
2119;SDS011;1066;52.540;13.420;2022-12-11T03:12:07;13.83;;;10.47;;
2119;SDS011;1066;52.540;13.420;2022-12-11T03:14:35;15.40;;;10.50;;
2119;SDS011;1066;52.540;13.420;2022-12-11T03:17:08;15.00;;;10.60;;
2119;SDS011;1066;52.540;13.420;2022-12-11T03:25:19;17.50;;;11.70;;
2119;SDS011;1066;52.540;13.420;2022-12-11T03:27:49;12.40;;;10.20;;
2119;SDS011;1066;52.540;13.420;2022-12-11T03:30:18;14.70;;;10.50;;
2119;SDS011;1066;52.540;13.420;2022-12-11T03:32:51;20.30;;;11.63;;
2119;SDS011;1066;52.540;13.420;2022-12-11T03:35:23;14.23;;;10.77;;
2119;SDS011;1066;52.540;13.420;2022-12-11T03:37:51;13.23;;;10.60;;
2119;SDS011;1066;52.540;13.420;2022-12-11T03:40:18;16.40;;;11.10;;
2119;SDS011;1066;52.540;13.420;2022-12-11T03:42:45;18.03;;;12.47;;
2119;SDS011;1066;52.540;13.420;2022-12-11T03:45:13;17.53;;;11.93;;
2119;SDS011;1066;52.540;13.420;2022-12-11T03:47:39;16.63;;;11.00;;
2119;SDS011;1066;52.540;13.420;2022-12-11T03:50:06;13.23;;;11.50;;
2119;SDS011;1066;52.540;13.420;2022-12-11T03:52:33;16.90;;;11.37;;
2119;SDS011;1066;52.540;13.420;2022-12-11T03:55:00;16.03;;;10.73;;
2119;SDS011;1066;52.540;13.420;2022-12-11T03:57:30;15.80;;;10.00;;
2119;SDS011;1066;52.540;13.420;2022-12-11T04:00:02;16.40;;;10.40;;
2119;SDS011;1066;52.540;13.420;2022-12-11T04:02:29;14.57;;;10.03;;
2119;SDS011;1066;52.540;13.420;2022-12-11T04:04:55;14.47;;;11.57;;
2119;SDS011;1066;52.540;13.420;2022-12-11T04:07:20;14.00;;;11.17;;
2119;SDS011;1066;52.540;13.420;2022-12-11T04:09:45;15.13;;;10.30;;
2119;SDS011;1066;52.540;13.420;2022-12-11T04:12:11;17.10;;;10.87;;
2119;SDS011;1066;52.540;13.420;2022-12-11T04:14:36;16.00;;;12.43;;
2119;SDS011;1066;52.540;13.420;2022-12-11T04:17:20;20.53;;;12.63;;
2119;SDS011;1066;52.540;13.420;2022-12-11T04:20:04;20.43;;;12.30;;
2119;SDS011;1066;52.540;13.420;2022-12-11T04:22:49;20.60;;;12.70;;
2119;SDS011;1066;52.540;13.420;2022-12-11T04:25:33;17.73;;;12.37;;
2119;SDS011;1066;52.540;13.420;2022-12-11T04:27:58;15.47;;;11.80;;
2119;SDS011;1066;52.540;13.420;2022-12-11T04:30:24;17.07;;;11.23;;
2119;SDS011;1066;52.540;13.420;2022-12-11T04:32:50;17.40;;;11.30;;
2119;SDS011;1066;52.540;13.420;2022-12-11T04:35:17;17.53;;;12.60;;
2119;SDS011;1066;52.540;13.420;2022-12-11T04:37:42;16.93;;;12.43;;
2119;SDS011;1066;52.540;13.420;2022-12-11T04:40:09;16.97;;;12.77;;
2119;SDS011;1066;52.540;13.420;2022-12-11T04:42:36;19.00;;;11.97;;
2119;SDS011;1066;52.540;13.420;2022-12-11T04:45:02;18.03;;;12.60;;
2119;SDS011;1066;52.540;13.420;2022-12-11T04:47:28;16.90;;;11.67;;
2119;SDS011;1066;52.540;13.420;2022-12-11T04:49:53;17.53;;;11.73;;
2119;SDS011;1066;52.540;13.420;2022-12-11T04:52:19;17.63;;;12.17;;
2119;SDS011;1066;52.540;13.420;2022-12-11T04:54:45;15.43;;;11.77;;
2119;SDS011;1066;52.540;13.420;2022-12-11T04:57:10;16.77;;;10.50;;
2119;SDS011;1066;52.540;13.420;2022-12-11T04:59:35;18.70;;;12.10;;
2119;SDS011;1066;52.540;13.420;2022-12-11T05:02:01;18.13;;;10.50;;
2119;SDS011;1066;52.540;13.420;2022-12-11T05:04:33;17.27;;;10.73;;
2119;SDS011;1066;52.540;13.420;2022-12-11T05:06:59;13.33;;;11.70;;
2119;SDS011;1066;52.540;13.420;2022-12-11T05:09:25;15.37;;;10.60;;
2119;SDS011;1066;52.540;13.420;2022-12-11T05:11:51;12.87;;;10.20;;
2119;SDS011;1066;52.540;13.420;2022-12-11T05:14:17;16.43;;;11.90;;
2119;SDS011;1066;52.540;13.420;2022-12-11T05:16:42;17.00;;;11.50;;
2119;SDS011;1066;52.540;13.420;2022-12-11T05:19:08;15.33;;;11.97;;
2119;SDS011;1066;52.540;13.420;2022-12-11T05:21:33;13.47;;;11.70;;
2119;SDS011;1066;52.540;13.420;2022-12-11T05:23:58;14.17;;;10.13;;
2119;SDS011;1066;52.540;13.420;2022-12-11T05:26:24;15.50;;;11.40;;
2119;SDS011;1066;52.540;13.420;2022-12-11T05:28:50;15.77;;;11.10;;
2119;SDS011;1066;52.540;13.420;2022-12-11T05:31:18;19.00;;;10.60;;
2119;SDS011;1066;52.540;13.420;2022-12-11T05:33:45;15.20;;;10.73;;
2119;SDS011;1066;52.540;13.420;2022-12-11T05:36:12;16.07;;;12.50;;
2119;SDS011;1066;52.540;13.420;2022-12-11T05:38:40;20.40;;;12.20;;
2119;SDS011;1066;52.540;13.420;2022-12-11T05:41:06;20.27;;;12.20;;
2119;SDS011;1066;52.540;13.420;2022-12-11T05:43:32;18.23;;;13.90;;
2119;SDS011;1066;52.540;13.420;2022-12-11T05:46:09;18.30;;;11.67;;
2119;SDS011;1066;52.540;13.420;2022-12-11T05:48:36;15.83;;;12.00;;
2119;SDS011;1066;52.540;13.420;2022-12-11T05:51:02;18.00;;;13.40;;
2119;SDS011;1066;52.540;13.420;2022-12-11T05:53:28;18.70;;;11.37;;
2119;SDS011;1066;52.540;13.420;2022-12-11T05:55:54;17.97;;;11.07;;
2119;SDS011;1066;52.540;13.420;2022-12-11T05:58:19;16.60;;;11.80;;
2119;SDS011;1066;52.540;13.420;2022-12-11T06:00:45;15.93;;;10.90;;
2119;SDS011;1066;52.540;13.420;2022-12-11T06:03:11;13.50;;;11.40;;
2119;SDS011;1066;52.540;13.420;2022-12-11T06:05:39;14.50;;;10.90;;
2119;SDS011;1066;52.540;13.420;2022-12-11T06:08:05;15.90;;;11.37;;
2119;SDS011;1066;52.540;13.420;2022-12-11T06:10:30;13.10;;;9.50;;
2119;SDS011;1066;52.540;13.420;2022-12-11T06:12:56;13.43;;;10.10;;
2119;SDS011;1066;52.540;13.420;2022-12-11T06:15:21;16.00;;;11.80;;
2119;SDS011;1066;52.540;13.420;2022-12-11T06:17:47;16.53;;;10.90;;
2119;SDS011;1066;52.540;13.420;2022-12-11T06:20:13;12.13;;;10.87;;
2119;SDS011;1066;52.540;13.420;2022-12-11T06:22:38;12.50;;;11.20;;
2119;SDS011;1066;52.540;13.420;2022-12-11T06:25:04;14.93;;;10.73;;
2119;SDS011;1066;52.540;13.420;2022-12-11T06:27:29;14.43;;;10.20;;
2119;SDS011;1066;52.540;13.420;2022-12-11T06:29:55;12.70;;;10.30;;
2119;SDS011;1066;52.540;13.420;2022-12-11T06:32:20;12.50;;;9.33;;
2119;SDS011;1066;52.540;13.420;2022-12-11T06:34:46;15.53;;;9.67;;
2119;SDS011;1066;52.540;13.420;2022-12-11T06:37:11;11.90;;;8.40;;
2119;SDS011;1066;52.540;13.420;2022-12-11T06:39:36;12.63;;;9.93;;
2119;SDS011;1066;52.540;13.420;2022-12-11T06:42:02;11.77;;;9.33;;
2119;SDS011;1066;52.540;13.420;2022-12-11T06:44:27;12.90;;;9.97;;
2119;SDS011;1066;52.540;13.420;2022-12-11T06:46:52;14.87;;;10.37;;
2119;SDS011;1066;52.540;13.420;2022-12-11T06:49:18;15.50;;;10.30;;
2119;SDS011;1066;52.540;13.420;2022-12-11T06:51:43;14.50;;;10.40;;
2119;SDS011;1066;52.540;13.420;2022-12-11T06:54:08;16.00;;;9.40;;
2119;SDS011;1066;52.540;13.420;2022-12-11T06:56:34;13.63;;;9.23;;
2119;SDS011;1066;52.540;13.420;2022-12-11T06:59:00;13.30;;;10.47;;
2119;SDS011;1066;52.540;13.420;2022-12-11T07:01:26;11.67;;;9.50;;
2119;SDS011;1066;52.540;13.420;2022-12-11T07:03:52;10.43;;;8.77;;
2119;SDS011;1066;52.540;13.420;2022-12-11T07:06:22;10.50;;;8.00;;
2119;SDS011;1066;52.540;13.420;2022-12-11T07:08:48;10.70;;;8.03;;
2119;SDS011;1066;52.540;13.420;2022-12-11T07:11:14;9.63;;;7.30;;
2119;SDS011;1066;52.540;13.420;2022-12-11T07:13:41;12.37;;;8.87;;
2119;SDS011;1066;52.540;13.420;2022-12-11T07:16:07;11.70;;;8.20;;
2119;SDS011;1066;52.540;13.420;2022-12-11T07:18:40;14.60;;;9.10;;
2119;SDS011;1066;52.540;13.420;2022-12-11T07:21:07;11.93;;;8.97;;
2119;SDS011;1066;52.540;13.420;2022-12-11T07:23:33;11.53;;;8.10;;
2119;SDS011;1066;52.540;13.420;2022-12-11T07:26:03;12.97;;;8.40;;
2119;SDS011;1066;52.540;13.420;2022-12-11T07:28:31;9.93;;;7.83;;
2119;SDS011;1066;52.540;13.420;2022-12-11T07:30:57;12.60;;;7.90;;
2119;SDS011;1066;52.540;13.420;2022-12-11T07:33:22;13.10;;;8.80;;
2119;SDS011;1066;52.540;13.420;2022-12-11T07:35:48;10.60;;;8.20;;
2119;SDS011;1066;52.540;13.420;2022-12-11T07:38:13;9.63;;;7.17;;
2119;SDS011;1066;52.540;13.420;2022-12-11T07:40:38;14.80;;;9.40;;
2119;SDS011;1066;52.540;13.420;2022-12-11T07:43:04;8.37;;;6.73;;
2119;SDS011;1066;52.540;13.420;2022-12-11T07:45:29;12.07;;;8.33;;
2119;SDS011;1066;52.540;13.420;2022-12-11T07:47:54;10.77;;;8.37;;
2119;SDS011;1066;52.540;13.420;2022-12-11T07:50:20;11.83;;;8.10;;
2119;SDS011;1066;52.540;13.420;2022-12-11T07:52:45;10.07;;;8.23;;
2119;SDS011;1066;52.540;13.420;2022-12-11T07:55:10;10.57;;;8.40;;
2119;SDS011;1066;52.540;13.420;2022-12-11T07:57:36;8.67;;;7.77;;
2119;SDS011;1066;52.540;13.420;2022-12-11T08:00:01;11.17;;;8.20;;
2119;SDS011;1066;52.540;13.420;2022-12-11T08:02:28;11.80;;;8.70;;
2119;SDS011;1066;52.540;13.420;2022-12-11T08:04:53;10.07;;;7.60;;
2119;SDS011;1066;52.540;13.420;2022-12-11T08:07:18;11.57;;;8.83;;
2119;SDS011;1066;52.540;13.420;2022-12-11T08:09:44;10.43;;;8.93;;
2119;SDS011;1066;52.540;13.420;2022-12-11T08:12:09;13.33;;;9.43;;
2119;SDS011;1066;52.540;13.420;2022-12-11T08:14:35;13.40;;;9.87;;
2119;SDS011;1066;52.540;13.420;2022-12-11T08:17:01;10.50;;;9.00;;
2119;SDS011;1066;52.540;13.420;2022-12-11T08:19:26;10.20;;;8.00;;
2119;SDS011;1066;52.540;13.420;2022-12-11T08:21:52;10.63;;;7.97;;
2119;SDS011;1066;52.540;13.420;2022-12-11T08:24:17;10.37;;;7.67;;
2119;SDS011;1066;52.540;13.420;2022-12-11T08:26:45;12.20;;;8.23;;
2119;SDS011;1066;52.540;13.420;2022-12-11T08:29:11;11.37;;;7.87;;
2119;SDS011;1066;52.540;13.420;2022-12-11T08:31:37;10.50;;;7.73;;
2119;SDS011;1066;52.540;13.420;2022-12-11T08:34:03;9.90;;;8.83;;
2119;SDS011;1066;52.540;13.420;2022-12-11T08:36:28;12.63;;;8.70;;
2119;SDS011;1066;52.540;13.420;2022-12-11T08:38:54;13.10;;;8.43;;
2119;SDS011;1066;52.540;13.420;2022-12-11T08:41:21;9.30;;;7.80;;
2119;SDS011;1066;52.540;13.420;2022-12-11T08:43:51;7.97;;;7.17;;
2119;SDS011;1066;52.540;13.420;2022-12-11T08:46:19;14.37;;;7.30;;
2119;SDS011;1066;52.540;13.420;2022-12-11T08:48:45;10.30;;;7.33;;
2119;SDS011;1066;52.540;13.420;2022-12-11T08:51:11;11.20;;;7.27;;
2119;SDS011;1066;52.540;13.420;2022-12-11T08:53:39;9.30;;;7.20;;
2119;SDS011;1066;52.540;13.420;2022-12-11T08:56:06;10.60;;;8.77;;
2119;SDS011;1066;52.540;13.420;2022-12-11T08:58:33;10.87;;;8.87;;
2119;SDS011;1066;52.540;13.420;2022-12-11T09:00:59;9.67;;;7.70;;
2119;SDS011;1066;52.540;13.420;2022-12-11T09:03:30;10.60;;;7.83;;
2119;SDS011;1066;52.540;13.420;2022-12-11T09:05:55;11.77;;;7.97;;
2119;SDS011;1066;52.540;13.420;2022-12-11T09:08:21;9.40;;;7.73;;
2119;SDS011;1066;52.540;13.420;2022-12-11T09:10:46;9.90;;;8.37;;
2119;SDS011;1066;52.540;13.420;2022-12-11T09:13:11;14.13;;;8.60;;
2119;SDS011;1066;52.540;13.420;2022-12-11T09:15:40;9.90;;;8.83;;
2119;SDS011;1066;52.540;13.420;2022-12-11T09:18:06;9.97;;;7.90;;
2119;SDS011;1066;52.540;13.420;2022-12-11T09:20:31;10.57;;;8.60;;
2119;SDS011;1066;52.540;13.420;2022-12-11T09:22:57;9.53;;;8.30;;
2119;SDS011;1066;52.540;13.420;2022-12-11T09:25:22;10.93;;;8.80;;
2119;SDS011;1066;52.540;13.420;2022-12-11T09:27:48;10.10;;;8.70;;
2119;SDS011;1066;52.540;13.420;2022-12-11T09:30:13;10.73;;;8.70;;
2119;SDS011;1066;52.540;13.420;2022-12-11T09:32:39;10.17;;;7.60;;
2119;SDS011;1066;52.540;13.420;2022-12-11T09:35:05;10.87;;;8.13;;
2119;SDS011;1066;52.540;13.420;2022-12-11T09:37:31;10.23;;;8.97;;
2119;SDS011;1066;52.540;13.420;2022-12-11T09:39:57;13.47;;;8.90;;
2119;SDS011;1066;52.540;13.420;2022-12-11T09:45:03;12.07;;;9.50;;
2119;SDS011;1066;52.540;13.420;2022-12-11T09:47:35;12.10;;;9.00;;
2119;SDS011;1066;52.540;13.420;2022-12-11T09:55:12;12.60;;;9.50;;
2119;SDS011;1066;52.540;13.420;2022-12-11T10:00:23;10.50;;;8.03;;
2119;SDS011;1066;52.540;13.420;2022-12-11T10:09:11;9.60;;;7.73;;
2119;SDS011;1066;52.540;13.420;2022-12-11T10:11:29;12.03;;;8.87;;
2119;SDS011;1066;52.540;13.420;2022-12-11T10:16:49;9.43;;;8.20;;
2119;SDS011;1066;52.540;13.420;2022-12-11T10:19:18;15.63;;;9.40;;
2119;SDS011;1066;52.540;13.420;2022-12-11T10:21:46;14.50;;;8.70;;
2119;SDS011;1066;52.540;13.420;2022-12-11T10:24:27;11.90;;;9.20;;
2119;SDS011;1066;52.540;13.420;2022-12-11T10:27:07;13.20;;;9.10;;
2119;SDS011;1066;52.540;13.420;2022-12-11T10:29:38;12.40;;;9.20;;
2119;SDS011;1066;52.540;13.420;2022-12-11T10:32:04;11.57;;;10.00;;
2119;SDS011;1066;52.540;13.420;2022-12-11T10:34:40;11.63;;;8.17;;
2119;SDS011;1066;52.540;13.420;2022-12-11T10:37:06;10.87;;;8.47;;
2119;SDS011;1066;52.540;13.420;2022-12-11T10:39:32;11.83;;;8.10;;
2119;SDS011;1066;52.540;13.420;2022-12-11T10:41:57;14.90;;;9.47;;
2119;SDS011;1066;52.540;13.420;2022-12-11T10:44:24;13.10;;;9.10;;
2119;SDS011;1066;52.540;13.420;2022-12-11T10:47:01;11.57;;;7.67;;
2119;SDS011;1066;52.540;13.420;2022-12-11T10:49:34;11.50;;;9.00;;
2119;SDS011;1066;52.540;13.420;2022-12-11T10:52:00;13.43;;;8.70;;
2119;SDS011;1066;52.540;13.420;2022-12-11T10:54:38;10.60;;;7.87;;
2119;SDS011;1066;52.540;13.420;2022-12-11T10:57:05;10.27;;;8.40;;
2119;SDS011;1066;52.540;13.420;2022-12-11T11:02:27;10.90;;;7.93;;
2119;SDS011;1066;52.540;13.420;2022-12-11T11:04:56;10.33;;;8.10;;
2119;SDS011;1066;52.540;13.420;2022-12-11T11:07:23;10.43;;;8.20;;
2119;SDS011;1066;52.540;13.420;2022-12-11T11:10:05;14.97;;;10.13;;
2119;SDS011;1066;52.540;13.420;2022-12-11T11:12:47;13.13;;;9.90;;
2119;SDS011;1066;52.540;13.420;2022-12-11T11:15:15;10.50;;;8.00;;
2119;SDS011;1066;52.540;13.420;2022-12-11T11:17:46;13.83;;;8.57;;
2119;SDS011;1066;52.540;13.420;2022-12-11T11:20:14;15.30;;;11.03;;
2119;SDS011;1066;52.540;13.420;2022-12-11T11:22:46;13.73;;;9.20;;
2119;SDS011;1066;52.540;13.420;2022-12-11T11:25:15;11.07;;;8.17;;
2119;SDS011;1066;52.540;13.420;2022-12-11T11:27:44;14.03;;;7.77;;
2119;SDS011;1066;52.540;13.420;2022-12-11T11:32:44;14.40;;;9.20;;
2119;SDS011;1066;52.540;13.420;2022-12-11T11:37:39;13.73;;;9.00;;
2119;SDS011;1066;52.540;13.420;2022-12-11T11:41:10;13.80;;;8.60;;
2119;SDS011;1066;52.540;13.420;2022-12-11T11:45:57;12.10;;;8.30;;
2119;SDS011;1066;52.540;13.420;2022-12-11T11:48:38;10.53;;;8.23;;
2119;SDS011;1066;52.540;13.420;2022-12-11T11:51:14;11.70;;;8.20;;
2119;SDS011;1066;52.540;13.420;2022-12-11T11:57:37;13.50;;;8.73;;
2119;SDS011;1066;52.540;13.420;2022-12-11T12:00:28;9.73;;;8.30;;
2119;SDS011;1066;52.540;13.420;2022-12-11T12:02:53;12.93;;;8.67;;
2119;SDS011;1066;52.540;13.420;2022-12-11T12:05:31;15.17;;;10.50;;
2119;SDS011;1066;52.540;13.420;2022-12-11T12:10:50;9.50;;;8.50;;
2119;SDS011;1066;52.540;13.420;2022-12-11T12:13:44;11.53;;;8.60;;
2119;SDS011;1066;52.540;13.420;2022-12-11T12:16:17;12.50;;;10.40;;
2119;SDS011;1066;52.540;13.420;2022-12-11T12:21:50;12.83;;;9.30;;
2119;SDS011;1066;52.540;13.420;2022-12-11T12:24:28;13.90;;;10.20;;
2119;SDS011;1066;52.540;13.420;2022-12-11T12:29:49;13.13;;;9.50;;
2119;SDS011;1066;52.540;13.420;2022-12-11T12:32:29;16.43;;;10.73;;
2119;SDS011;1066;52.540;13.420;2022-12-11T12:38:17;11.63;;;9.27;;
2119;SDS011;1066;52.540;13.420;2022-12-11T12:49:09;12.07;;;9.13;;
2119;SDS011;1066;52.540;13.420;2022-12-11T12:51:38;16.50;;;10.07;;
2119;SDS011;1066;52.540;13.420;2022-12-11T12:54:04;16.30;;;9.47;;
2119;SDS011;1066;52.540;13.420;2022-12-11T12:56:31;14.33;;;9.83;;
2119;SDS011;1066;52.540;13.420;2022-12-11T12:58:57;15.67;;;10.37;;
2119;SDS011;1066;52.540;13.420;2022-12-11T13:01:23;12.67;;;10.17;;
2119;SDS011;1066;52.540;13.420;2022-12-11T13:04:05;14.37;;;9.50;;
2119;SDS011;1066;52.540;13.420;2022-12-11T13:09:20;11.00;;;8.20;;
2119;SDS011;1066;52.540;13.420;2022-12-11T13:11:48;10.80;;;8.93;;
2119;SDS011;1066;52.540;13.420;2022-12-11T13:16:45;14.47;;;10.00;;
2119;SDS011;1066;52.540;13.420;2022-12-11T13:19:16;15.10;;;9.90;;
2119;SDS011;1066;52.540;13.420;2022-12-11T13:24:29;13.93;;;9.50;;
2119;SDS011;1066;52.540;13.420;2022-12-11T13:27:06;11.53;;;8.77;;
2119;SDS011;1066;52.540;13.420;2022-12-11T13:29:37;11.07;;;8.93;;
2119;SDS011;1066;52.540;13.420;2022-12-11T13:34:34;12.73;;;9.23;;
2119;SDS011;1066;52.540;13.420;2022-12-11T13:37:00;17.20;;;9.73;;
2119;SDS011;1066;52.540;13.420;2022-12-11T13:39:31;13.90;;;9.00;;
2119;SDS011;1066;52.540;13.420;2022-12-11T13:42:03;11.93;;;9.00;;
2119;SDS011;1066;52.540;13.420;2022-12-11T13:44:35;12.33;;;9.30;;
2119;SDS011;1066;52.540;13.420;2022-12-11T13:47:04;16.90;;;10.07;;
2119;SDS011;1066;52.540;13.420;2022-12-11T13:49:33;15.50;;;11.23;;
2119;SDS011;1066;52.540;13.420;2022-12-11T13:52:00;17.17;;;11.17;;
2119;SDS011;1066;52.540;13.420;2022-12-11T13:54:26;11.97;;;9.17;;
2119;SDS011;1066;52.540;13.420;2022-12-11T13:57:11;17.77;;;9.93;;
2119;SDS011;1066;52.540;13.420;2022-12-11T13:59:41;15.10;;;10.47;;
2119;SDS011;1066;52.540;13.420;2022-12-11T14:02:27;12.53;;;9.87;;
2119;SDS011;1066;52.540;13.420;2022-12-11T14:04:58;13.40;;;9.17;;
2119;SDS011;1066;52.540;13.420;2022-12-11T14:07:29;11.23;;;8.87;;
2119;SDS011;1066;52.540;13.420;2022-12-11T14:10:20;17.57;;;10.70;;
2119;SDS011;1066;52.540;13.420;2022-12-11T14:13:03;17.03;;;9.77;;
2119;SDS011;1066;52.540;13.420;2022-12-11T14:15:31;14.73;;;9.50;;
2119;SDS011;1066;52.540;13.420;2022-12-11T14:17:57;14.30;;;9.07;;
2119;SDS011;1066;52.540;13.420;2022-12-11T14:20:25;13.53;;;9.13;;
2119;SDS011;1066;52.540;13.420;2022-12-11T14:23:05;14.20;;;9.83;;
2119;SDS011;1066;52.540;13.420;2022-12-11T14:25:41;13.17;;;9.87;;
2119;SDS011;1066;52.540;13.420;2022-12-11T14:28:14;12.07;;;9.00;;
2119;SDS011;1066;52.540;13.420;2022-12-11T14:30:43;16.40;;;10.70;;
2119;SDS011;1066;52.540;13.420;2022-12-11T14:33:12;12.27;;;9.17;;
2119;SDS011;1066;52.540;13.420;2022-12-11T14:35:39;14.37;;;8.73;;
2119;SDS011;1066;52.540;13.420;2022-12-11T14:38:15;13.83;;;10.00;;
2119;SDS011;1066;52.540;13.420;2022-12-11T14:40:44;13.10;;;8.67;;
2119;SDS011;1066;52.540;13.420;2022-12-11T14:43:19;10.17;;;9.17;;
2119;SDS011;1066;52.540;13.420;2022-12-11T14:45:47;12.13;;;9.43;;
2119;SDS011;1066;52.540;13.420;2022-12-11T14:48:20;15.20;;;10.50;;
2119;SDS011;1066;52.540;13.420;2022-12-11T14:50:48;11.17;;;9.80;;
2119;SDS011;1066;52.540;13.420;2022-12-11T14:55:51;15.27;;;11.30;;
2119;SDS011;1066;52.540;13.420;2022-12-11T14:58:21;14.13;;;9.63;;
2119;SDS011;1066;52.540;13.420;2022-12-11T15:03:22;16.80;;;10.80;;
2119;SDS011;1066;52.540;13.420;2022-12-11T15:05:49;15.43;;;9.60;;
2119;SDS011;1066;52.540;13.420;2022-12-11T15:08:34;15.77;;;10.13;;
2119;SDS011;1066;52.540;13.420;2022-12-11T15:14:00;17.33;;;11.40;;
2119;SDS011;1066;52.540;13.420;2022-12-11T15:16:25;14.50;;;9.67;;
2119;SDS011;1066;52.540;13.420;2022-12-11T15:18:52;15.10;;;10.00;;
2119;SDS011;1066;52.540;13.420;2022-12-11T15:21:18;15.53;;;10.37;;
2119;SDS011;1066;52.540;13.420;2022-12-11T15:23:55;19.37;;;11.00;;
2119;SDS011;1066;52.540;13.420;2022-12-11T15:27:04;19.70;;;11.10;;
2119;SDS011;1066;52.540;13.420;2022-12-11T15:29:31;12.17;;;10.10;;
2119;SDS011;1066;52.540;13.420;2022-12-11T15:32:22;15.10;;;10.47;;
2119;SDS011;1066;52.540;13.420;2022-12-11T15:34:50;15.63;;;9.73;;
2119;SDS011;1066;52.540;13.420;2022-12-11T15:39:54;12.63;;;8.40;;
2119;SDS011;1066;52.540;13.420;2022-12-11T15:42:31;10.80;;;9.00;;
2119;SDS011;1066;52.540;13.420;2022-12-11T15:44:58;12.40;;;8.63;;
2119;SDS011;1066;52.540;13.420;2022-12-11T15:47:25;14.40;;;9.80;;
2119;SDS011;1066;52.540;13.420;2022-12-11T15:49:56;12.73;;;10.13;;
2119;SDS011;1066;52.540;13.420;2022-12-11T15:52:23;14.03;;;9.97;;
2119;SDS011;1066;52.540;13.420;2022-12-11T15:54:48;12.90;;;9.83;;
2119;SDS011;1066;52.540;13.420;2022-12-11T15:57:15;13.90;;;9.70;;
2119;SDS011;1066;52.540;13.420;2022-12-11T15:59:41;13.30;;;9.27;;
2119;SDS011;1066;52.540;13.420;2022-12-11T16:02:10;16.37;;;9.23;;
2119;SDS011;1066;52.540;13.420;2022-12-11T16:04:36;16.07;;;10.80;;
2119;SDS011;1066;52.540;13.420;2022-12-11T16:07:02;12.70;;;10.00;;
2119;SDS011;1066;52.540;13.420;2022-12-11T16:09:28;13.43;;;9.33;;
2119;SDS011;1066;52.540;13.420;2022-12-11T16:11:53;16.07;;;9.80;;
2119;SDS011;1066;52.540;13.420;2022-12-11T16:14:18;12.03;;;9.23;;
2119;SDS011;1066;52.540;13.420;2022-12-11T16:16:43;11.97;;;8.87;;